This is the latest recevied weather packets stored in our database for station/object HS3PIK-2. If no packets are shown the sender has not sent any weather packets the latest 1 day(s).
| Time | Temp. | Humidity | Pressure | Rain* | Wind** | Luminosity | Snow |
|---|---|---|---|---|---|---|---|
| 1778082986 | 29.44° C | 79% | - | - | - | 0 W/m² | - |
| 1778082661 | 29.44° C | 79% | - | - | - | 0 W/m² | - |
| 1778081024 | 30° C | 78% | - | - | - | 0 W/m² | - |
| 1778079714 | 30.56° C | 77% | - | - | - | 0 W/m² | - |
| 1778079059 | 30.56° C | 77% | - | - | - | 0 W/m² | - |
| 1778078074 | 30.56° C | 78% | - | - | - | 0 W/m² | - |
| 1778077084 | 30.56° C | 77% | - | - | - | 0 W/m² | - |
| 1778076756 | 30.56° C | 78% | - | - | - | 0 W/m² | - |
| 1778075769 | 30° C | 80% | - | - | - | 0 W/m² | - |
| 1778075446 | 29.44° C | 81% | - | - | - | 0 W/m² | - |
| 1778073804 | 28.33° C | 84% | - | - | - | 0 W/m² | - |
| 1778072827 | 28.89° C | 84% | - | - | - | 0 W/m² | - |
| 1778071842 | 28.89° C | 83% | - | - | - | 0 W/m² | - |
| 1778070535 | 29.44° C | 82% | - | - | - | 0 W/m² | - |
| 1778069880 | 29.44° C | 81% | - | - | - | 0 W/m² | - |
| 1778069555 | 29.44° C | 81% | - | - | - | 0 W/m² | - |
| 1778068245 | 30° C | 82% | - | - | - | 0 W/m² | - |
| 1778067918 | 30° C | 82% | - | - | - | 0 W/m² | - |
| 1778067263 | 30.56° C | 81% | - | - | - | 0 W/m² | - |
| 1778066938 | 30.56° C | 80% | - | - | - | 0 W/m² | - |
| 1778066608 | 30.56° C | 80% | - | - | - | 0 W/m² | - |
| 1778065953 | 30.56° C | 80% | - | - | - | 0 W/m² | - |
| 1778064641 | 31.11° C | 77% | - | - | - | 0 W/m² | - |
| 1778064316 | 31.67° C | 77% | - | - | - | 0 W/m² | - |
| 1778063988 | 31.67° C | 78% | - | - | - | 0 W/m² | - |
* Rain since midnight (hover to see other rain measurements)
** Current wind speed in m/s (hover to see current wind gust speed)